.
Local / Fort Wayne - NE Ind.

U N D E R   C O N S T R U C T I O N

Local Weather
Fort Wayne – NE Indiana

Northern Indiana (IWX) Radar

Latest IWX NEXRAD
Base Reflectivity



Latest IWX NEXRAD
Base Velocity

Indiana-Ohio Visible Satellite

For infrared and water vapor imagery, see Great Lakes - Midwest.

Current Conditions

Recent report from the Fort Wayne International Airport

May 22, 2019 - 03:54 AM EDT / 2019.05.22 0754 UTC


The skies are overcast. The temperature is 53.1 F (11.7 C) and the dew point is 44.1 F (6.7 C), giving a relative humidity of 71%. The barometric pressure is 29.98 in. Hg (1015 hPa). The wind is from the E (090 degrees) at 14 MPH (12 KT), and the visibility is 10 mile(s).

KFWA 220754Z 09012KT 10SM FEW050 OVC170 12/07 A2998 RMK AO2 SLP154 T01170067

Local Weather — Contents

Local Weather — Links

CoCoRaHS
IN-AL-39
A2 Web Hosting
Creative Commons License
GoDaddy
search engine by freefind advanced

loaded 2019-05-22 04:56:12 • last modified 2017-02-11 13:27:36
Privacy PolicyDisclaimer
• wx.awcolley.com is powered by PmWiki v.2002016 •
• all content (unless otherwise noted) © 2019 A W Colley